NEODyS-2

Near Earth Objects - Dynamic Site
NEODyS ∴ Observatories ∴ Site 691 ∴ Obs & residuals
Contact »
691  ▹ 
OBSERVATIONS AND RESIDUALS

691-Steward Observatory, Kitt Peak-Spacewatch

Detections | Residuals | Detections & Residuals

[1-200] [201-400] [401-600] [601-800] [801-1000] [1001-1200] [1201-1400] [1401-1600] [1601-1800] [1801-2000] [2001-2200] [2201-2400] [2401-2600] [2601-2800] [2801-3000] [3001-3200] [3201-3400] [3401-3600] [3601-3800] [3801-4000] [4001-4200] [4201-4400] [4401-4600] [4601-4800] [4801-5000] [5001-5200] [5201-5400] [5401-5600] [5601-5800] [5801-6000] [6001-6200] [6201-6400] [6401-6600] [6601-6800] [6801-7000] [7001-7200] [7201-7400] [7401-7600] [7601-7800] [7801-8000] [8001-8200] [8201-8400] [8401-8600] [8601-8800] [8801-9000] [9001-9200] [9201-9400] [9401-9600] [9601-9800] [9801-10000] [10001-10200] [10201-10400] [10401-10600] [10601-10800] [10801-11000] [11001-11200] [11201-11400] [11401-11600] [11601-11800] [11801-12000] [12001-12200] [12201-12400] [12401-12600] [12601-12800] [12801-13000] [13001-13200] [13201-13400] [13401-13600] [13601-13800] [13801-14000] [14001-14200] [14201-14400] [14401-14600] [14601-14800] [14801-15000] [15001-15200] [15201-15400] [15401-15600] [15601-15800] [15801-16000] [16001-16200] [16201-16400] [16401-16600] [16601-16800] [16801-17000] [17001-17200] [17201-17400] [17401-17600] [17601-17800] [17801-18000] [18001-18200] [18201-18400] [18401-18600] [18601-18800] [18801-19000] [19001-19200] [19201-19400] [19401-19600] [19601-19800] [19801-20000] [20001-20200] [20201-20400] [20401-20600] [20601-20800] [20801-21000] [21001-21200] [21201-21400] [21401-21600] [21601-21800] [21801-22000] [22001-22200] [22201-22400] [22401-22600] [22601-22800] [22801-23000] [23001-23200] [23201-23400] [23401-23600] [23601-23800] [23801-24000] [24001-24200] [24201-24400] [24401-24600] [24601-24800] [24801-25000] [25001-25200] [25201-25400] [25401-25600] [25601-25800] [25801-26000] [26001-26200] [26201-26400] [26401-26600] [26601-26800] [26801-27000] [27001-27200] [27201-27400] [27401-27600] [27601-27800] [27801-28000] [28001-28200] [28201-28400] [28401-28600] [28601-28800] [28801-29000] [29001-29200] [29201-29400] [29401-29600] [29601-29800] [29801-30000] [30001-30200] [30201-30400] [30401-30600] [30601-30800] [30801-31000] [31001-31200] [31201-31400] [31401-31600] [31601-31800] [31801-32000] [32001-32200] [32201-32400] [32401-32600] [32601-32800] [32801-33000] [33001-33200] [33201-33400] [33401-33600] [33601-33800] [33801-34000] [34001-34200] [34201-34400] [34401-34600] [34601-34800] [34801-35000] [35001-35200] [35201-35400] [35401-35600] [35601-35800] [35801-36000] [36001-36200] [36201-36400] [36401-36600] [36601-36800] [36801-37000] [37001-37200] [37201-37400] [37401-37600] [37601-37800] [37801-38000] [38001-38200] [38201-38400] [38401-38600] [38601-38800] [38801-39000] [39001-39200] [39201-39400] [39401-39600] [39601-39800] [39801-40000] [40001-40200] [40201-40400] [40401-40600] [40601-40800] [40801-41000] [41001-41200] [41201-41400] [41401-41600] [41601-41800] [41801-42000] [42001-42200] [42201-42400] [42401-42600] [42601-42800] [42801-43000] [43001-43200] [43201-43400] [43401-43600] [43601-43800] [43801-44000] [44001-44200] [44201-44400] [44401-44600] [44601-44800] [44801-45000] [45001-45200] [45201-45400] [45401-45600] [45601-45800] [45801-46000] [46001-46200] [46201-46400] [46401-46600] [46601-46800] [46801-47000] [47001-47200] [47201-47400] [47401-47600] [47601-47800] [47801-48000] [48001-48200] [48201-48400] [48401-48600] [48601-48800] [48801-49000] [49001-49200] [49201-49400] [49401-49600] [49601-49800] [49801-50000] [50001-50200] [50201-50388]

Designation T Tech N Date Right Ascension Declination Apparent Magnitude Star Catalog Site code χ Used A Used M
yr-mo-day precision hr:min:sec precision rms F bias residual deg min sec precision rms F bias residual mag/col rms residual
2017QL33 O C H 2017-11-11.08174 1.000E-05 21:10:43.910 1.500E-01 0.500 F 0.067 0.194 -11° 03' 42.40" 1.000E-01 0.500 F 0.277 0.336 20.5 R 0.70 0.17 o 691 0.78 Yes Yes
2017QL33 O C H 2017-11-11.09210 1.000E-05 21:10:44.080 1.500E-01 0.500 F 0.067 -0.084 -11° 03' 34.00" 1.000E-01 0.500 F 0.277 -0.316 20.5 R 0.70 0.17 o 691 0.65 Yes Yes
2017UC5 O C 2017-11-11.20322 1.000E-05 03:30:11.310 1.500E-01 0.612 F -0.228 -0.325 +18° 44' 22.00" 1.000E-01 0.612 F 0.388 -0.471 o 691 0.94 Yes No
2017UC5 O C H 2017-11-11.20588 1.000E-05 03:30:11.370 1.500E-01 0.612 F -0.228 -0.051 +18° 44' 19.70" 1.000E-01 0.612 F 0.388 0.197 o 691 0.33 Yes No
2017UC5 O C 2017-11-11.21625 1.000E-05 03:30:11.500 1.500E-01 0.612 F -0.228 -0.425 +18° 44' 07.70" 1.000E-01 0.612 F 0.388 -0.219 o 691 0.78 Yes No
2017UC5 O C H 2017-11-11.21892 1.000E-05 03:30:11.620 1.500E-01 0.612 F -0.228 0.716 +18° 44' 05.20" 1.000E-01 0.612 F 0.388 0.267 o 691 1.25 Yes No
2017UC5 O C 2017-11-11.22930 1.000E-05 03:30:11.670 1.500E-01 0.612 F -0.228 -0.732 +18° 43' 53.20" 1.000E-01 0.612 F 0.388 -0.106 o 691 1.21 Yes No
2017UC5 O C H 2017-11-11.23197 1.000E-05 03:30:11.790 1.500E-01 0.612 F -0.228 0.425 +18° 43' 50.10" 1.000E-01 0.612 F 0.388 -0.211 o 691 0.78 Yes No
2017SF14 O C 2017-11-12.29240 1.000E-05 03:12:40.280 1.500E-01 0.500 F -0.161 0.007 +11° 25' 40.50" 1.000E-01 0.500 F 0.264 -0.128 o 691 0.26 Yes No
1994AH2 O C 2017-11-12.29425 1.000E-05 03:17:02.450 1.500E-01 0.500 F -0.177 -0.192 +04° 20' 41.70" 1.000E-01 0.500 F 0.223 0.001 o 691 0.38 Yes No
2017SF14 O C 2017-11-12.30527 1.000E-05 03:12:39.170 1.500E-01 0.500 F -0.161 0.689 +11° 25' 58.70" 1.000E-01 0.500 F 0.264 0.782 o 691 2.11 Yes No
1994AH2 O C 2017-11-12.30713 1.000E-05 03:17:01.450 1.500E-01 0.500 F -0.177 -0.315 +04° 20' 36.40" 1.000E-01 0.500 F 0.223 0.087 o 691 0.65 Yes No
2017SF14 O C 2017-11-12.31818 1.000E-05 03:12:37.920 1.500E-01 0.500 F -0.161 -0.652 +11° 26' 14.70" 1.000E-01 0.500 F 0.264 -0.488 o 691 1.65 Yes No
1994AH2 O C 2017-11-12.32004 1.000E-05 03:17:00.470 1.500E-01 0.500 F -0.177 -0.104 +04° 20' 30.80" 1.000E-01 0.500 F 0.223 -0.113 o 691 0.31 Yes No
2014WG365 O C 2017-11-12.32739 1.000E-05 04:20:55.360 1.500E-01 0.500 F -0.254 -0.129 -02° 05' 05.00" 1.000E-01 0.500 F 0.215 0.210 o 691 0.50 Yes No
2014WG365 O C 2017-11-12.34525 1.000E-05 04:20:52.540 1.500E-01 0.500 F -0.254 -0.727 -02° 04' 50.20" 1.000E-01 0.500 F 0.215 -0.191 o 691 1.51 Yes No
2014WG365 O C 2017-11-12.36344 1.000E-05 04:20:49.720 1.500E-01 0.500 F -0.254 -0.522 -02° 04' 34.70" 1.000E-01 0.500 F 0.215 -0.198 o 691 1.12 Yes No
2017SY20 O C 2017-11-12.38387 1.000E-05 05:22:17.460 1.500E-01 0.500 F -0.235 -1.055 -02° 56' 38.30" 1.000E-01 0.500 F 0.017 0.094 20.5 V 0.70 -0.67 o 691 2.13 Yes Yes
2017SY20 O C 2017-11-12.39593 1.000E-05 05:22:19.370 1.500E-01 0.500 F -0.235 -0.082 -02° 56' 38.50" 1.000E-01 0.500 F 0.017 0.075 20.7 V 0.70 -0.47 o 691 0.22 Yes Yes
2017SY20 O C 2017-11-12.40814 1.000E-05 05:22:21.230 1.500E-01 0.500 F -0.235 -0.180 -02° 56' 38.80" 1.000E-01 0.500 F 0.017 -0.069 20.4 V 0.70 -0.77 o 691 0.39 Yes Yes
2017TH6 O C H 2017-11-15.07446 1.000E-05 21:43:22.170 1.500E-01 0.500 F -0.032 0.176 +07° 58' 39.20" 1.000E-01 0.500 F 0.184 -0.203 o 691 0.55 Yes No
2017OP19 O C H 2017-11-15.07633 1.000E-05 21:10:50.560 1.500E-01 0.500 F -0.055 -0.183 -22° 58' 35.00" 1.000E-01 0.500 F 0.320 0.045 19.7 R 0.70 0.14 o 691 0.39 Yes Yes
2017QL33 O C H 2017-11-15.07802 1.000E-05 21:13:09.580 1.500E-01 0.500 F 0.119 -0.056 -10° 01' 49.60" 1.000E-01 0.500 F 0.269 0.004 o 691 0.11 Yes No
2017TH6 O C H 2017-11-15.07998 1.000E-05 21:43:21.240 1.500E-01 0.500 F -0.032 -0.041 +07° 58' 40.70" 1.000E-01 0.500 F 0.184 -0.419 o 691 0.86 Yes No
2017OP19 O C H 2017-11-15.08171 1.000E-05 21:10:53.230 1.500E-01 0.500 F -0.055 -0.552 -22° 58' 50.40" 1.000E-01 0.500 F 0.320 -0.371 20.0 R 0.70 0.44 o 691 1.35 Yes Yes
2017QL33 O C H 2017-11-15.08340 1.000E-05 21:13:09.720 1.500E-01 0.500 F 0.119 0.088 -10° 01' 44.10" 1.000E-01 0.500 F 0.269 0.084 20.0 R 0.70 -0.30 o 691 0.24 Yes Yes
2017TH6 O C H 2017-11-15.08536 1.000E-05 21:43:20.400 1.500E-01 0.500 F -0.032 0.731 +07° 58' 42.20" 1.000E-01 0.500 F 0.184 -0.585 o 691 1.91 Yes No
2017OP19 O C H 2017-11-15.08709 1.000E-05 21:10:55.990 1.500E-01 0.500 F -0.055 0.310 -22° 59' 05.00" 1.000E-01 0.500 F 0.320 0.002 20.3 R 0.70 0.74 o 691 0.64 Yes Yes
1992SK O C 2017-11-15.08950 1.000E-05 22:05:32.290 1.500E-01 0.500 F -0.071 -0.220 -09° 32' 17.70" 1.000E-01 0.500 F 0.233 -0.012 o 691 0.44 Yes No
2009TK8 O C K 2017-11-15.08950 1.000E-05 22:04:03.900 1.500E-01 0.500 F -0.071 -0.132 -09° 07' 23.30" 1.000E-01 0.500 F 0.233 0.060 o 691 0.29 Yes No
2017RL1 O C K 2017-11-15.09238 1.000E-05 21:31:39.310 1.500E-01 0.500 F 0.007 0.468 +13° 24' 08.90" 1.000E-01 0.500 F 0.205 0.258 o 691 1.12 Yes No
2009TK8 O C K 2017-11-15.10047 1.000E-05 22:04:05.960 1.500E-01 0.500 F -0.066 0.054 -09° 06' 43.10" 1.000E-01 0.500 F 0.235 -0.111 19.8 R 0.70 -0.38 o 691 0.25 Yes Yes
1992SK O C 2017-11-15.10047 1.000E-05 22:05:33.610 1.500E-01 0.500 F -0.071 -0.018 -09° 32' 02.20" 1.000E-01 0.500 F 0.233 -0.080 o 691 0.16 Yes No
2017RL1 O C K 2017-11-15.10332 1.000E-05 21:31:41.940 1.500E-01 0.500 F 0.007 0.383 +13° 24' 06.10" 1.000E-01 0.500 F 0.205 -0.104 o 691 0.83 Yes No
1992SK O C 2017-11-15.11140 1.000E-05 22:05:34.900 1.500E-01 0.500 F -0.071 -0.194 -09° 31' 46.10" 1.000E-01 0.500 F 0.233 0.504 o 691 1.08 Yes No
2009TK8 O C K 2017-11-15.11140 1.000E-05 22:04:08.020 1.500E-01 0.500 F -0.066 0.354 -09° 06' 02.40" 1.000E-01 0.500 F 0.235 0.367 19.6 R 0.70 -0.58 o 691 1.05 Yes Yes
2017RL1 O C K 2017-11-15.11427 1.000E-05 21:31:44.520 1.500E-01 0.500 F 0.007 -0.479 +13° 24' 04.50" 1.000E-01 0.500 F 0.205 0.746 o 691 1.84 Yes No
2017VL13 O C K 2017-11-15.12792 1.000E-05 02:19:16.710 1.500E-01 0.500 F -0.305 -0.417 +16° 49' 33.80" 1.000E-01 0.500 F 0.362 0.488 o 691 1.40 Yes No
2017VL13 O C K 2017-11-15.13897 1.000E-05 02:19:19.640 1.500E-01 0.500 F -0.305 0.569 +16° 49' 28.20" 1.000E-01 0.500 F 0.362 0.041 o 691 1.27 Yes No
2017VL13 O C K 2017-11-15.15027 1.000E-05 02:19:22.540 1.500E-01 0.500 F -0.305 0.436 +16° 49' 22.70" 1.000E-01 0.500 F 0.362 -0.133 o 691 1.01 Yes No
1994AH2 O C 2017-11-15.15662 1.000E-05 03:13:25.180 1.500E-01 0.500 F -0.158 -0.233 +04° 01' 03.90" 1.000E-01 0.500 F 0.250 0.303 19.8 V 0.70 0.18 o 691 0.77 Yes Yes
1994AH2 O C 2017-11-15.16841 1.000E-05 03:13:24.260 1.500E-01 0.500 F -0.158 -0.277 +04° 00' 59.00" 1.000E-01 0.500 F 0.250 0.154 19.8 V 0.70 0.18 o 691 0.63 Yes Yes
1994AH2 O C 2017-11-15.18022 1.000E-05 03:13:23.360 1.500E-01 0.500 F -0.158 0.020 +04° 00' 53.90" 1.000E-01 0.500 F 0.250 -0.187 19.9 V 0.70 0.28 o 691 0.38 Yes Yes
2017UX4 O C K 2017-11-15.19282 1.000E-05 02:58:32.800 1.500E-01 0.500 F -0.234 -5.074 +18° 11' 49.30" 1.000E-01 0.500 F 0.250 -1.154 o 691 10.27 No No
2017VK13 O C K 2017-11-15.19762 1.000E-05 02:52:07.200 1.500E-01 0.500 F -0.373 -0.200 +19° 24' 46.40" 1.000E-01 0.500 F 0.259 0.100 19.9 R 0.70 -0.71 o 691 0.45 Yes Yes
2017UX4 O C K 2017-11-15.20252 1.000E-05 02:58:30.250 1.500E-01 0.500 F -0.234 -0.550 +18° 12' 13.90" 1.000E-01 0.500 F 0.250 -0.113 o 691 1.14 Yes No
2017VK13 O C K 2017-11-15.20733 1.000E-05 02:52:05.160 1.500E-01 0.500 F -0.373 -0.411 +19° 25' 02.70" 1.000E-01 0.500 F 0.259 0.025 19.8 R 0.70 -0.81 o 691 0.83 Yes Yes
2017UX4 O C K 2017-11-15.21222 1.000E-05 02:58:27.380 1.500E-01 0.500 F -0.234 -0.562 +18° 12' 37.30" 1.000E-01 0.500 F 0.250 -0.233 o 691 1.23 Yes No
2017VK13 O C K 2017-11-15.21703 1.000E-05 02:52:03.150 1.500E-01 0.500 F -0.373 -0.156 +19° 25' 18.80" 1.000E-01 0.500 F 0.259 -0.203 19.7 R 0.70 -0.91 o 691 0.52 Yes Yes
2017SF14 O C K 2017-11-15.22920 1.000E-05 03:09:32.920 1.500E-01 0.500 F -0.185 -0.068 +12° 28' 12.40" 1.000E-01 0.500 F 0.243 0.199 o 691 0.43 Yes No
2017SF14 O C K 2017-11-15.24427 1.000E-05 03:09:31.720 1.500E-01 0.500 F -0.185 -0.166 +12° 28' 30.20" 1.000E-01 0.500 F 0.243 -0.621 o 691 1.30 Yes No
2017SF14 O C K 2017-11-15.25930 1.000E-05 03:09:30.540 1.500E-01 0.500 F -0.185 0.092 +12° 28' 49.00" 1.000E-01 0.500 F 0.243 -0.293 21.3 R 0.70 0.53 o 691 0.62 Yes Yes
2017VF13 O C K 2017-11-15.27017 1.000E-05 03:42:45.160 1.500E-01 0.500 F -0.274 0.131 +05° 59' 34.60" 1.000E-01 0.500 F 0.297 -0.084 o 691 0.32 Yes No
2017VF13 O C K 2017-11-15.29668 1.000E-05 03:42:40.840 1.500E-01 0.500 F -0.274 -0.088 +06° 01' 35.70" 1.000E-01 0.500 F 0.297 0.093 o 691 0.27 Yes No
2016VO1 O C K 2017-11-15.30807 1.000E-05 02:54:35.890 1.500E-01 0.500 F -0.215 -0.429 +09° 18' 19.00" 1.000E-01 0.500 F 0.325 -0.354 o 691 1.13 Yes No
2017VJ O C H 2017-11-15.31705 1.000E-05 02:51:35.910 1.500E-01 0.500 F -0.195 0.302 +05° 03' 17.80" 1.000E-01 0.500 F 0.156 -0.004 21.0 R 0.70 0.71 o 691 0.61 Yes Yes
2016VO1 O C K 2017-11-15.32138 1.000E-05 02:54:32.790 1.500E-01 0.500 F -0.215 0.076 +09° 18' 12.40" 1.000E-01 0.500 F 0.325 0.069 o 691 0.21 Yes No
2017VJ O C H 2017-11-15.33036 1.000E-05 02:51:36.220 1.500E-01 0.500 F -0.195 0.303 +05° 03' 20.00" 1.000E-01 0.500 F 0.156 -0.048 21.0 R 0.70 0.70 o 691 0.62 Yes Yes
2016VO1 O C K 2017-11-15.33468 1.000E-05 02:54:29.680 1.500E-01 0.500 F -0.215 0.323 +09° 18' 05.10" 1.000E-01 0.500 F 0.325 -0.189 o 691 0.76 Yes No
2017VJ O C H 2017-11-15.34363 1.000E-05 02:51:36.540 1.500E-01 0.500 F -0.195 0.316 +05° 03' 22.30" 1.000E-01 0.500 F 0.156 0.054 o 691 0.65 Yes No
2017SV20 O C H 2017-11-15.34890 1.000E-05 03:52:05.050 1.500E-01 0.500 F -0.346 0.194 -24° 27' 25.70" 1.000E-01 0.500 F 0.198 -0.382 20.9 R 0.70 0.59 o 691 0.86 Yes Yes
2006YY2 O C K 2017-11-15.35080 1.000E-05 03:53:34.740 1.500E-01 0.500 F -0.286 -0.241 -25° 54' 17.00" 1.000E-01 0.500 F 0.259 -0.036 o 691 0.49 Yes No
2017SV20 O C H 2017-11-15.35765 1.000E-05 03:52:03.920 1.500E-01 0.500 F -0.346 0.311 -24° 27' 23.50" 1.000E-01 0.500 F 0.198 0.220 20.9 R 0.70 0.59 o 691 0.76 Yes Yes
2006YY2 O C K 2017-11-15.35954 1.000E-05 03:53:33.910 1.500E-01 0.500 F -0.286 -0.542 -25° 54' 16.60" 1.000E-01 0.500 F 0.259 0.358 o 691 1.31 Yes No
2017SV20 O C H 2017-11-15.36634 1.000E-05 03:52:02.760 1.500E-01 0.500 F -0.346 -0.095 -24° 27' 22.10" 1.000E-01 0.500 F 0.198 0.019 20.1 R 0.70 -0.21 o 691 0.20 Yes Yes
2006YY2 O C K 2017-11-15.36823 1.000E-05 03:53:33.150 1.500E-01 0.500 F -0.286 0.036 -25° 54' 17.20" 1.000E-01 0.500 F 0.259 -0.258 o 691 0.52 Yes No
2014PG51 O C K 2017-11-15.37540 1.000E-05 03:04:38.660 1.500E-01 0.500 F -0.195 -0.747 +24° 10' 17.80" 1.000E-01 0.500 F 0.324 0.020 o 691 1.51 Yes No
2017TN6 O C H 2017-11-15.38444 1.000E-05 02:31:28.550 1.500E-01 0.500 F -0.374 0.591 +17° 16' 51.30" 1.000E-01 0.500 F 0.317 0.085 o 691 1.21 Yes No
2014PG51 O C K 2017-11-15.38618 1.000E-05 03:04:37.000 1.500E-01 0.500 F -0.195 0.151 +24° 10' 09.60" 1.000E-01 0.500 F 0.324 -0.118 o 691 0.39 Yes No
2017UO O C K 2017-11-15.39119 1.000E-05 01:14:57.810 1.500E-01 0.500 F -0.245 -0.613 +14° 12' 32.70" 1.000E-01 0.500 F 0.307 -0.224 o 691 1.32 Yes No
2017TN6 O C H 2017-11-15.39516 1.000E-05 02:31:27.500 1.500E-01 0.500 F -0.374 -0.001 +17° 16' 52.80" 1.000E-01 0.500 F 0.317 0.247 21.3 R 0.70 0.71 o 691 0.50 Yes Yes
2014PG51 O C K 2017-11-15.39691 1.000E-05 03:04:35.250 1.500E-01 0.500 F -0.195 -0.323 +24° 10' 01.70" 1.000E-01 0.500 F 0.324 0.026 o 691 0.65 Yes No
2017UO O C K 2017-11-15.40191 1.000E-05 01:14:57.370 1.500E-01 0.500 F -0.245 -0.241 +14° 12' 20.70" 1.000E-01 0.500 F 0.307 0.228 o 691 0.67 Yes No
2014XJ3 O C K 2017-11-15.40600 1.000E-05 03:23:56.640 1.500E-01 0.500 F -0.248 0.046 +19° 58' 16.80" 1.000E-01 0.500 F 0.392 -0.130 21.6 R 0.70 0.54 o 691 0.28 Yes Yes
2010VT11 O C 2017-11-15.41037 1.000E-05 03:54:06.400 1.500E-01 0.500 F -0.195 0.036 +23° 40' 41.20" 1.000E-01 0.500 F 0.271 0.241 19.4 V 0.70 0.04 o 691 0.49 Yes Yes
2014XJ3 O C K 2017-11-15.41373 1.000E-05 03:23:55.620 1.500E-01 0.500 F -0.248 0.027 +19° 58' 14.10" 1.000E-01 0.500 F 0.392 0.396 20.7 R 0.70 -0.36 o 691 0.79 Yes Yes
2010VT11 O C 2017-11-15.41810 1.000E-05 03:54:04.570 1.500E-01 0.500 F -0.195 -0.294 +23° 40' 28.30" 1.000E-01 0.500 F 0.271 -0.105 19.4 V 0.70 0.04 o 691 0.63 Yes Yes
2014XJ3 O C K 2017-11-15.42149 1.000E-05 03:23:54.590 1.500E-01 0.500 F -0.248 -0.087 +19° 58' 10.40" 1.000E-01 0.500 F 0.392 -0.059 21.1 R 0.70 0.04 o 691 0.21 Yes Yes
2010VT11 O C 2017-11-15.42590 1.000E-05 03:54:02.770 1.500E-01 0.500 F -0.195 -0.046 +23° 40' 15.60" 1.000E-01 0.500 F 0.271 -0.118 19.5 V 0.70 0.14 o 691 0.26 Yes Yes
2012XM145 O C H 2017-11-15.43345 1.000E-05 09:29:57.710 1.500E-01 0.500 F 0.279 0.454 +17° 54' 28.50" 1.000E-01 0.500 F 0.303 0.213 19.2 R 0.70 -0.49 o 691 1.03 Yes Yes
2015UK52 O C H 2017-11-15.44268 1.000E-05 09:02:26.060 1.500E-01 0.612 F 0.112 0.230 +08° 40' 53.50" 1.000E-01 0.612 F 0.112 -0.178 19.4 R 0.70 0.84 o 691 0.48 Yes Yes
2012XM145 O C H 2017-11-15.44372 1.000E-05 09:29:58.380 1.500E-01 0.500 F 0.279 -0.177 +17° 53' 32.30" 1.000E-01 0.500 F 0.303 1.051 o 691 2.19 Yes No
2015UK52 O C H 2017-11-15.45297 1.000E-05 09:02:28.850 1.500E-01 0.612 F 0.112 -0.177 +08° 39' 13.00" 1.000E-01 0.612 F 0.112 0.035 19.5 R 0.70 0.94 o 691 0.30 Yes Yes
2012XM145 O C H 2017-11-15.45405 1.000E-05 09:29:59.110 1.500E-01 0.500 F 0.279 0.065 +17° 52' 32.70" 1.000E-01 0.500 F 0.303 -1.129 o 691 2.32 Yes No
2015UK52 O C H 2017-11-15.46328 1.000E-05 09:02:31.710 1.500E-01 0.612 F 0.112 0.473 +08° 37' 31.90" 1.000E-01 0.612 F 0.112 -0.133 19.7 R 0.70 1.14 o 691 0.81 Yes Yes
2015UK52 O C H 2017-11-15.46698 1.000E-05 09:02:32.710 1.500E-01 0.612 F 0.112 0.337 +08° 36' 55.60" 1.000E-01 0.612 F 0.112 -0.205 19.1 R 0.70 0.54 o 691 0.66 Yes Yes
2015UK52 O C H 2017-11-15.47333 1.000E-05 09:02:34.390 1.500E-01 0.612 F 0.112 -0.408 +08° 35' 53.90" 1.000E-01 0.612 F 0.112 0.276 18.9 R 0.70 0.34 o 691 0.82 Yes Yes
2015UK52 O C H 2017-11-15.47961 1.000E-05 09:02:36.120 1.500E-01 0.612 F 0.112 -0.099 +08° 34' 52.20" 1.000E-01 0.612 F 0.112 0.081 19.0 R 0.70 0.44 o 691 0.21 Yes Yes
2004XN35 O C 2017-11-15.50059 1.000E-05 09:14:21.660 1.500E-01 0.500 F -0.019 -0.133 -07° 23' 33.00" 1.000E-01 0.500 F 0.005 0.233 18.8 V 0.70 -0.21 o 691 0.54 Yes Yes
2004XN35 O C 2017-11-15.50907 1.000E-05 09:14:19.840 1.500E-01 0.500 F -0.019 -0.219 -07° 23' 25.70" 1.000E-01 0.500 F 0.005 0.105 18.8 V 0.70 -0.21 o 691 0.49 Yes Yes
2004XN35 O C 2017-11-15.51803 1.000E-05 09:14:17.930 1.500E-01 0.500 F -0.019 -0.102 -07° 23' 17.80" 1.000E-01 0.500 F 0.005 0.149 18.8 V 0.70 -0.21 o 691 0.36 Yes Yes
2010MW O C 2017-11-16.15686 1.000E-05 23:39:00.540 1.500E-01 0.500 F 0.034 -0.080 +28° 28' 39.40" 1.000E-01 0.500 F 0.299 0.319 19.4 V 0.70 -0.05 o 691 0.66 Yes Yes
2010MW O C 2017-11-16.15811 1.000E-05 23:39:00.830 1.500E-01 0.500 F 0.034 -0.270 +28° 28' 36.40" 1.000E-01 0.500 F 0.299 0.127 19.4 V 0.70 -0.05 o 691 0.60 Yes Yes
2010MW O C 2017-11-16.15936 1.000E-05 23:39:01.120 1.500E-01 0.500 F 0.034 -0.461 +28° 28' 33.10" 1.000E-01 0.500 F 0.299 -0.365 19.6 V 0.70 0.15 o 691 1.18 Yes Yes
2015XK1 O C K 2017-11-16.30461 1.000E-05 02:23:27.580 1.500E-01 0.500 F -0.188 -0.132 +04° 55' 25.00" 1.000E-01 0.500 F 0.273 -0.405 o 691 0.86 Yes No
2015XK1 O C K 2017-11-16.32267 1.000E-05 02:23:25.410 1.500E-01 0.500 F -0.188 0.111 +04° 55' 09.30" 1.000E-01 0.500 F 0.273 -0.039 o 691 0.24 Yes No
2015XK1 O C K 2017-11-16.34075 1.000E-05 02:23:23.220 1.500E-01 0.500 F -0.188 0.037 +04° 54' 53.90" 1.000E-01 0.500 F 0.273 0.653 o 691 1.31 Yes No
2003UX34 O C 2017-11-16.36849 1.000E-05 04:02:11.530 1.500E-01 0.500 F -0.085 -0.939 +25° 45' 53.40" 1.000E-01 0.500 F 0.306 -0.595 21.0 V 0.70 0.04 o 691 2.22 Yes Yes
2003UX34 O C 2017-11-16.37340 1.000E-05 04:02:10.640 1.500E-01 0.500 F -0.085 -0.425 +25° 45' 52.10" 1.000E-01 0.500 F 0.306 -0.233 20.9 V 0.70 -0.06 o 691 0.97 Yes Yes
2003UX34 O C 2017-11-16.37831 1.000E-05 04:02:09.710 1.500E-01 0.500 F -0.085 -0.454 +25° 45' 50.30" 1.000E-01 0.500 F 0.306 -0.366 21.0 V 0.70 0.04 o 691 1.16 Yes Yes
2014JN57 O C K 2017-11-16.38671 1.000E-05 05:03:06.290 1.500E-01 0.500 F 0.001 -0.316 +09° 54' 17.60" 1.000E-01 0.500 F 0.117 0.158 o 691 0.71 Yes No
2014JN57 O C K 2017-11-16.39163 1.000E-05 05:03:05.490 1.500E-01 0.500 F 0.001 -0.091 +09° 54' 28.00" 1.000E-01 0.500 F 0.117 -0.146 o 691 0.35 Yes No
2014QW296 O C K 2017-11-16.40457 1.000E-05 07:31:56.280 1.500E-01 0.500 F -0.062 -0.286 +16° 03' 30.20" 1.000E-01 0.500 F 0.088 0.061 19.5 R 0.70 0.11 o 691 0.59 Yes Yes
2014QW296 O C K 2017-11-16.40858 1.000E-05 07:31:56.470 1.500E-01 0.500 F -0.062 0.016 +16° 03' 33.30" 1.000E-01 0.500 F 0.088 0.198 19.6 R 0.70 0.21 o 691 0.40 Yes Yes
2014QW296 O C K 2017-11-16.41259 1.000E-05 07:31:56.650 1.500E-01 0.500 F -0.062 0.177 +16° 03' 36.30" 1.000E-01 0.500 F 0.088 0.237 19.6 R 0.70 0.21 o 691 0.59 Yes Yes
2017VO15 O C 2017-11-16.44813 1.000E-05 08:43:37.890 1.500E-01 0.500 F -0.010 0.302 -13° 07' 03.40" 1.000E-01 0.500 F 0.027 0.151 19.1 V 0.70 -0.02 o 691 0.68 Yes Yes
2017VO15 O C 2017-11-16.45034 1.000E-05 08:43:38.870 1.500E-01 0.500 F -0.010 0.290 -13° 06' 54.50" 1.000E-01 0.500 F 0.027 0.187 19.5 V 0.70 0.38 o 691 0.70 Yes Yes
2017VO15 O C 2017-11-16.45255 1.000E-05 08:43:39.820 1.500E-01 0.500 F -0.010 -0.159 -13° 06' 45.70" 1.000E-01 0.500 F 0.027 0.120 19.0 V 0.70 -0.12 o 691 0.40 Yes Yes
2004XN35 O C 2017-11-16.47450 1.000E-05 09:11:00.100 1.500E-01 0.500 F 0.034 -0.021 -07° 09' 09.90" 1.000E-01 0.500 F 0.017 -0.074 19.1 V 0.70 0.12 o 691 0.15 Yes Yes
2004XN35 O C 2017-11-16.48061 1.000E-05 09:10:58.790 1.500E-01 0.500 F 0.034 0.027 -07° 09' 04.50" 1.000E-01 0.500 F 0.017 -0.100 19.1 V 0.70 0.12 o 691 0.21 Yes Yes
2004XN35 O C 2017-11-16.48672 1.000E-05 09:10:57.480 1.500E-01 0.500 F 0.034 0.086 -07° 08' 58.90" 1.000E-01 0.500 F 0.017 0.070 20.1 V 0.70 1.12 o 691 0.22 Yes Yes
2017OA O C H 2017-11-16.49768 1.000E-05 10:42:45.350 1.500E-01 0.500 F 0.074 0.582 +02° 32' 20.80" 1.000E-01 0.500 F 0.184 -0.091 21.2 R 0.70 0.74 o 691 1.18 Yes Yes
2017OA O C H 2017-11-16.50457 1.000E-05 10:42:44.730 1.500E-01 0.500 F 0.074 0.020 +02° 32' 18.90" 1.000E-01 0.500 F 0.184 0.052 21.4 R 0.70 0.94 o 691 0.11 Yes Yes
2017OA O C H 2017-11-16.51134 1.000E-05 10:42:44.130 1.500E-01 0.500 F 0.074 -0.374 +02° 32' 17.00" 1.000E-01 0.500 F 0.184 0.162 21.4 R 0.70 0.94 o 691 0.82 Yes Yes
2010MW O C 2017-11-17.07651 1.000E-05 23:42:50.280 1.500E-01 0.500 F -0.005 -0.010 +27° 54' 26.50" 1.000E-01 0.500 F 0.303 -0.171 19.6 V 0.70 0.12 o 691 0.35 Yes Yes
2010MW O C 2017-11-17.07777 1.000E-05 23:42:50.580 1.500E-01 0.500 F -0.005 -0.056 +27° 54' 23.80" 1.000E-01 0.500 F 0.303 -0.097 19.5 V 0.70 0.02 o 691 0.22 Yes Yes
2010MW O C 2017-11-17.08822 1.000E-05 23:42:53.120 1.500E-01 0.500 F -0.005 0.273 +27° 54' 00.70" 1.000E-01 0.500 F 0.303 -0.171 19.3 V 0.70 -0.18 o 691 0.65 Yes Yes
2017VR14 O C K 2017-11-17.11184 1.000E-05 02:20:59.300 1.500E-01 0.500 F -0.270 1.504 +20° 34' 21.80" 1.000E-01 0.500 F 0.289 0.367 o 691 3.12 Yes No
2017VR14 O C K 2017-11-17.13203 1.000E-05 02:21:03.980 1.500E-01 0.500 F -0.270 1.128 +20° 35' 40.40" 1.000E-01 0.500 F 0.289 0.058 o 691 2.27 Yes No
2013UP8 O C K 2017-11-17.18228 1.000E-05 01:44:12.490 1.500E-01 0.500 F -0.192 -0.415 -30° 14' 52.80" 1.000E-01 0.500 F 0.263 0.045 o 691 0.84 Yes No
2013UP8 O C K 2017-11-17.19349 1.000E-05 01:44:11.660 1.500E-01 0.500 F -0.192 -0.170 -30° 14' 42.90" 1.000E-01 0.500 F 0.263 -0.086 o 691 0.38 Yes No
2013UP8 O C K 2017-11-17.20476 1.000E-05 01:44:10.790 1.500E-01 0.500 F -0.192 -0.384 -30° 14' 32.70" 1.000E-01 0.500 F 0.263 0.019 o 691 0.77 Yes No
2003UX34 O C 2017-11-17.21620 1.000E-05 03:59:35.020 1.500E-01 0.500 F -0.100 -0.038 +25° 41' 03.70" 1.000E-01 0.500 F 0.283 0.107 o 691 0.23 Yes No
2003UX34 O C 2017-11-17.23155 1.000E-05 03:59:32.110 1.500E-01 0.500 F -0.100 0.262 +25° 40' 58.30" 1.000E-01 0.500 F 0.283 -0.120 o 691 0.58 Yes No
2017VO14 O C K 2017-11-17.23317 1.000E-05 04:40:01.060 1.500E-01 0.500 F -0.209 0.631 +11° 09' 44.60" 1.000E-01 0.500 F 0.232 -0.179 o 691 1.51 Yes No
2003UX34 O C 2017-11-17.24691 1.000E-05 03:59:29.150 1.500E-01 0.500 F -0.100 -0.026 +25° 40' 53.00" 1.000E-01 0.500 F 0.283 -0.200 o 691 0.40 Yes No
2017VO14 O C K 2017-11-17.24854 1.000E-05 04:40:10.670 1.500E-01 0.500 F -0.209 -0.890 +11° 11' 16.60" 1.000E-01 0.500 F 0.232 0.526 o 691 2.30 Yes No
2017UZ4 O C 2017-11-17.35825 1.000E-05 05:15:36.560 1.500E-01 0.500 F -0.052 0.141 +07° 01' 38.80" 1.000E-01 0.500 F 0.094 -0.073 o 691 0.32 Yes No
2017UZ4 O C 2017-11-17.36545 1.000E-05 05:15:36.150 1.500E-01 0.500 F -0.052 -0.082 +07° 01' 24.00" 1.000E-01 0.500 F 0.094 -0.088 o 691 0.24 Yes No
2017UZ4 O C 2017-11-17.37260 1.000E-05 05:15:35.770 1.500E-01 0.500 F -0.052 0.104 +07° 01' 09.50" 1.000E-01 0.500 F 0.094 0.096 o 691 0.29 Yes No
2017VF14 O C K 2017-11-18.45213 1.000E-05 04:12:44.030 1.500E-01 0.500 F -0.124 -0.674 +19° 01' 47.20" 1.000E-01 0.500 F 0.263 -0.328 o 691 1.54 Yes No
2017VF14 O C K 2017-11-18.46392 1.000E-05 04:12:41.840 1.500E-01 0.500 F -0.124 -0.452 +19° 02' 08.20" 1.000E-01 0.500 F 0.263 -0.134 o 691 0.97 Yes No
2017VF14 O C K 2017-11-18.47578 1.000E-05 04:12:39.800 1.500E-01 0.500 F -0.124 0.974 +19° 02' 28.20" 1.000E-01 0.500 F 0.263 -0.693 o 691 2.46 Yes No
2017NU6 O C K 2017-11-19.06684 1.000E-05 21:52:55.800 1.500E-01 0.500 F 0.131 -0.125 -25° 20' 48.10" 1.000E-01 0.500 F 0.541 -0.585 o 691 1.22 Yes No
2017NU6 O C K 2017-11-19.07086 1.000E-05 21:52:56.960 1.500E-01 0.500 F 0.131 0.128 -25° 20' 48.20" 1.000E-01 0.500 F 0.541 -0.286 o 691 0.64 Yes No
2017NU6 O C K 2017-11-19.07492 1.000E-05 21:52:58.090 1.500E-01 0.500 F 0.131 -0.182 -25° 20' 47.70" 1.000E-01 0.500 F 0.541 0.612 o 691 1.31 Yes No
2017VT14 O C K 2017-11-19.08431 1.000E-05 22:04:11.330 1.500E-01 0.500 F -0.060 0.094 +16° 24' 43.40" 1.000E-01 0.500 F 0.364 -0.304 21.5 R 0.70 0.31 o 691 0.64 Yes Yes
2017VT14 O C K 2017-11-19.09525 1.000E-05 22:04:11.110 1.500E-01 0.500 F -0.060 0.713 +16° 24' 38.00" 1.000E-01 0.500 F 0.364 0.055 21.2 R 0.70 0.01 o 691 1.44 Yes Yes
2017VT14 O C K 2017-11-19.10618 1.000E-05 22:04:10.800 1.500E-01 0.500 F -0.060 -0.007 +16° 24' 32.00" 1.000E-01 0.500 F 0.364 -0.127 21.5 R 0.70 0.31 o 691 0.26 Yes Yes
2002LX64 O C K 2017-11-19.11794 1.000E-05 23:25:08.830 1.500E-01 0.500 F -0.241 -0.576 +15° 32' 43.40" 1.000E-01 0.500 F 0.227 -0.274 o 691 1.29 Yes No
2002LX64 O C K 2017-11-19.12212 1.000E-05 23:25:07.680 1.500E-01 0.500 F -0.241 0.109 +15° 32' 34.30" 1.000E-01 0.500 F 0.227 0.309 o 691 0.66 Yes No
2002LX64 O C K 2017-11-19.12629 1.000E-05 23:25:06.460 1.500E-01 0.500 F -0.241 -0.260 +15° 32' 24.20" 1.000E-01 0.500 F 0.227 -0.125 o 691 0.58 Yes No
2017RH15 O C K 2017-11-19.13330 1.000E-05 23:18:27.110 1.500E-01 0.500 F -0.265 0.520 -21° 39' 35.30" 1.000E-01 0.500 F -0.025 -0.091 o 691 1.07 Yes No
2017UK2 O C K 2017-11-19.13752 1.000E-05 23:21:23.220 1.500E-01 0.500 F -0.317 -0.201 -11° 02' 29.70" 1.000E-01 0.500 F 0.410 0.094 o 691 0.45 Yes No
2016TE93 O C K 2017-11-19.14566 1.000E-05 23:40:58.970 1.500E-01 0.500 F -0.157 0.479 -09° 25' 56.20" 1.000E-01 0.500 F 0.097 0.038 o 691 0.98 Yes No
2017RH15 O C K 2017-11-19.15391 1.000E-05 23:18:30.110 1.500E-01 0.500 F -0.265 0.387 -21° 39' 15.60" 1.000E-01 0.500 F -0.025 -0.340 o 691 1.04 Yes No
2017UK2 O C K 2017-11-19.15813 1.000E-05 23:21:21.560 1.500E-01 0.500 F -0.317 0.090 -11° 03' 14.70" 1.000E-01 0.500 F 0.410 -0.147 o 691 0.35 Yes No
2016TE93 O C K 2017-11-19.16627 1.000E-05 23:41:00.830 1.500E-01 0.500 F -0.157 0.404 -09° 26' 38.20" 1.000E-01 0.500 F 0.097 0.302 o 691 1.02 Yes No
2017RH15 O C K 2017-11-19.17450 1.000E-05 23:18:33.140 1.500E-01 0.500 F -0.265 0.486 -21° 38' 54.80" 1.000E-01 0.500 F -0.025 0.181 o 691 1.05 Yes No
2017UK2 O C K 2017-11-19.17871 1.000E-05 23:21:19.890 1.500E-01 0.500 F -0.317 0.060 -11° 03' 59.20" 1.000E-01 0.500 F 0.410 -0.044 o 691 0.15 Yes No
2016TE93 O C K 2017-11-19.18687 1.000E-05 23:41:02.690 1.500E-01 0.500 F -0.157 0.272 -09° 27' 20.50" 1.000E-01 0.500 F 0.097 0.155 o 691 0.63 Yes No
2014KT76 O C H 2017-11-19.21606 1.000E-05 02:41:45.720 1.500E-01 0.500 F -0.177 -0.541 +08° 28' 08.90" 1.000E-01 0.500 F 0.194 -0.024 o 691 1.12 Yes No
2017UF5 O C K 2017-11-19.21803 1.000E-05 02:43:33.260 1.500E-01 0.500 F -0.188 -0.234 +10° 24' 42.50" 1.000E-01 0.500 F 0.163 0.066 o 691 0.49 Yes No
2014KT76 O C H 2017-11-19.22769 1.000E-05 02:41:43.860 1.500E-01 0.500 F -0.177 -0.141 +08° 27' 48.20" 1.000E-01 0.500 F 0.194 -0.334 o 691 0.75 Yes No
2017UF5 O C K 2017-11-19.22966 1.000E-05 02:43:32.700 1.500E-01 0.500 F -0.188 0.025 +10° 24' 36.30" 1.000E-01 0.500 F 0.163 -0.373 o 691 0.76 Yes No
2014KT76 O C H 2017-11-19.23930 1.000E-05 02:41:42.070 1.500E-01 0.500 F -0.177 1.283 +08° 27' 28.20" 1.000E-01 0.500 F 0.194 0.045 o 691 2.65 Yes No
2017UF5 O C K 2017-11-19.24127 1.000E-05 02:43:32.100 1.500E-01 0.500 F -0.188 -0.315 +10° 24' 30.70" 1.000E-01 0.500 F 0.163 -0.216 o 691 0.78 Yes No
2017WH1 O C K 2017-11-19.25230 1.000E-05 03:00:51.700 1.500E-01 0.500 F -0.126 -0.371 +20° 11' 39.20" 1.000E-01 0.500 F 0.335 -0.205 o 691 0.85 Yes No
2017WH1 O C K 2017-11-19.27660 1.000E-05 03:00:49.750 1.500E-01 0.500 F -0.126 -1.102 +20° 11' 28.20" 1.000E-01 0.500 F 0.335 -0.113 o 691 2.23 Yes No
2017WO1 O C K 2017-11-19.38147 1.000E-05 04:25:11.420 1.500E-01 0.500 F -0.206 0.353 +13° 19' 13.60" 1.000E-01 0.500 F 0.213 0.277 o 691 0.91 Yes No
2017WO1 O C K 2017-11-19.39213 1.000E-05 04:25:09.770 1.500E-01 0.500 F -0.206 0.230 +13° 18' 27.60" 1.000E-01 0.500 F 0.213 0.671 o 691 1.44 Yes No
2017WO1 O C K 2017-11-19.40277 1.000E-05 04:25:08.170 1.500E-01 0.500 F -0.206 0.720 +13° 17' 40.60" 1.000E-01 0.500 F 0.213 0.010 o 691 1.46 Yes No
2017WP1 O C K 2017-11-19.42466 1.000E-05 04:40:49.920 1.500E-01 0.500 F -0.035 0.530 +13° 55' 13.60" 1.000E-01 0.500 F 0.159 0.053 o 691 1.08 Yes No
2017WP1 O C K 2017-11-19.43964 1.000E-05 04:40:55.340 1.500E-01 0.500 F -0.035 0.939 +13° 55' 20.60" 1.000E-01 0.500 F 0.159 -0.369 o 691 2.04 Yes No
2017WP1 O C K 2017-11-19.45461 1.000E-05 04:41:00.770 1.500E-01 0.500 F -0.035 1.053 +13° 55' 28.10" 1.000E-01 0.500 F 0.159 -0.148 o 691 2.15 Yes No
2017WG2 O C 2017-11-19.47447 1.000E-05 05:16:19.920 1.500E-01 0.500 F -0.257 -0.115 -06° 12' 24.00" 1.000E-01 0.500 F 0.137 0.050 o 691 0.25 Yes No
2017WG2 O C 2017-11-19.48647 1.000E-05 05:16:18.260 1.500E-01 0.500 F -0.257 -0.177 -06° 12' 36.60" 1.000E-01 0.500 F 0.137 -0.279 o 691 0.67 Yes No
2017WG2 O C 2017-11-19.49845 1.000E-05 05:16:16.620 1.500E-01 0.500 F -0.257 -0.028 -06° 12' 48.90" 1.000E-01 0.500 F 0.137 -0.335 o 691 0.68 Yes No
2017WW11 O C 2017-11-19.50950 1.000E-05 08:55:20.440 1.500E-01 0.500 F 0.011 0.243 -02° 02' 42.00" 1.000E-01 0.500 F 0.038 -0.151 o 691 0.58 Yes No
2015FO124 O C 2017-11-19.51119 1.000E-05 09:25:00.240 1.500E-01 0.500 F 0.078 -0.560 -18° 58' 56.60" 1.000E-01 0.500 F -0.123 0.081 o 691 1.13 Yes No
2017WW11 O C 2017-11-19.51435 1.000E-05 08:55:21.260 1.500E-01 0.500 F 0.011 -0.173 -02° 02' 44.30" 1.000E-01 0.500 F 0.038 -0.504 o 691 1.07 Yes No
2015FO124 O C 2017-11-19.51599 1.000E-05 09:25:00.490 1.500E-01 0.500 F 0.078 -0.211 -18° 58' 50.60" 1.000E-01 0.500 F -0.123 -0.185 o 691 0.57 Yes No
2017WW11 O C 2017-11-19.51915 1.000E-05 08:55:22.120 1.500E-01 0.500 F 0.011 0.143 -02° 02' 46.10" 1.000E-01 0.500 F 0.038 -0.378 o 691 0.81 Yes No
2015FO124 O C 2017-11-19.52078 1.000E-05 09:25:00.720 1.500E-01 0.500 F 0.078 -0.133 -18° 58' 44.40" 1.000E-01 0.500 F -0.123 -0.249 o 691 0.57 Yes No
2009TK8 O C K 2017-11-20.12187 1.000E-05 22:19:17.880 1.500E-01 0.500 F -0.025 0.005 -04° 23' 02.20" 1.000E-01 0.500 F 0.120 0.028 o 691 0.06 Yes No
2009TK8 O C K 2017-11-20.12719 1.000E-05 22:19:18.760 1.500E-01 0.500 F -0.025 0.143 -04° 22' 45.50" 1.000E-01 0.500 F 0.120 0.115 o 691 0.38 Yes No
2017WG1 O C K 2017-11-20.13665 1.000E-05 01:21:39.610 1.500E-01 0.500 F -0.164 0.087 -08° 53' 47.50" 1.000E-01 0.500 F 0.074 -0.339 o 691 0.71 Yes No
2017UC45 O C K 2017-11-20.14031 1.000E-05 02:01:34.540 1.500E-01 0.500 F -0.573 -0.068 -16° 18' 07.70" 1.000E-01 0.500 F 0.127 -0.087 o 691 0.22 Yes No
2017WG1 O C K 2017-11-20.14517 1.000E-05 01:21:42.110 1.500E-01 0.500 F -0.164 0.262 -08° 54' 44.00" 1.000E-01 0.500 F 0.074 -0.147 o 691 0.61 Yes No
2017UC45 O C K 2017-11-20.14881 1.000E-05 02:01:32.000 1.500E-01 0.500 F -0.573 -0.453 -16° 18' 30.70" 1.000E-01 0.500 F 0.127 -0.081 o 691 0.93 Yes No
2017WG1 O C K 2017-11-20.15368 1.000E-05 01:21:44.570 1.500E-01 0.500 F -0.164 -0.075 -08° 55' 41.00" 1.000E-01 0.500 F 0.074 -0.544 o 691 1.11 Yes No
2017UC45 O C K 2017-11-20.15733 1.000E-05 02:01:29.470 1.500E-01 0.500 F -0.573 -0.538 -16° 18' 53.70" 1.000E-01 0.500 F 0.127 -0.043 o 691 1.10 Yes No
2017WH1 O C K 2017-11-20.16552 1.000E-05 02:59:43.850 1.500E-01 0.500 F -0.126 -0.291 +20° 04' 42.70" 1.000E-01 0.500 F 0.335 -0.095 o 691 0.61 Yes No
2017WH1 O C K 2017-11-20.20060 1.000E-05 02:59:41.150 1.500E-01 0.500 F -0.126 -0.678 +20° 04' 27.30" 1.000E-01 0.500 F 0.335 0.181 o 691 1.41 Yes No
2017WH1 O C K 2017-11-20.23576 1.000E-05 02:59:38.510 1.500E-01 0.500 F -0.126 -0.032 +20° 04' 10.90" 1.000E-01 0.500 F 0.335 -0.416 o 691 0.84 Yes No
2017UF5 O C K 2017-11-20.27125 1.000E-05 02:42:45.860 1.500E-01 0.500 F -0.188 0.254 +10° 16' 09.10" 1.000E-01 0.500 F 0.163 -0.223 21.5 R 0.70 0.25 o 691 0.69 Yes Yes
2017VJ O C H 2017-11-20.27941 1.000E-05 02:55:02.210 1.500E-01 0.500 F -0.251 -0.034 +05° 20' 27.10" 1.000E-01 0.500 F 0.162 -0.112 o 691 0.24 Yes No
2017UF5 O C K 2017-11-20.29713 1.000E-05 02:42:44.590 1.500E-01 0.500 F -0.188 -0.320 +10° 15' 56.80" 1.000E-01 0.500 F 0.163 -0.153 21.2 R 0.70 -0.05 o 691 0.72 Yes Yes
2017VJ O C H 2017-11-20.30530 1.000E-05 02:55:02.570 1.500E-01 0.500 F -0.251 0.246 +05° 20' 32.90" 1.000E-01 0.500 F 0.162 -0.265 o 691 0.73 Yes No
2017UF5 O C K 2017-11-20.32303 1.000E-05 02:42:43.400 1.500E-01 0.500 F -0.188 0.223 +10° 15' 44.50" 1.000E-01 0.500 F 0.163 -0.045 21.6 R 0.70 0.34 o 691 0.46 Yes Yes
2017VJ O C H 2017-11-20.33121 1.000E-05 02:55:02.930 1.500E-01 0.500 F -0.251 0.187 +05° 20' 39.00" 1.000E-01 0.500 F 0.162 -0.005 o 691 0.38 Yes No
2014KT76 O C 2017-11-21.29487 1.000E-05 02:36:14.640 1.500E-01 0.500 F -0.140 -0.292 +07° 24' 52.80" 1.000E-01 0.500 F 0.323 0.210 o 691 0.74 Yes No
2005VQ O C 2017-11-21.29914 1.000E-05 03:11:53.770 1.500E-01 0.500 F -0.264 -0.012 +18° 47' 57.70" 1.000E-01 0.500 F 0.217 -0.084 o 691 0.17 Yes No
2014XJ3 O C K 2017-11-21.29914 1.000E-05 03:10:38.340 1.500E-01 0.500 F -0.264 0.108 +19° 13' 54.80" 1.000E-01 0.500 F 0.217 -0.415 20.3 R 0.70 -0.84 o 691 0.87 Yes Yes
2006VW2 O C 2017-11-21.30523 1.000E-05 03:13:45.710 1.500E-01 0.500 F -0.259 -0.370 +12° 21' 59.00" 1.000E-01 0.500 F 0.340 0.010 o 691 0.76 Yes No
2014KT76 O C 2017-11-21.30898 1.000E-05 02:36:12.210 1.500E-01 0.500 F -0.140 -0.087 +07° 24' 26.00" 1.000E-01 0.500 F 0.323 0.254 o 691 0.55 Yes No
2005VQ O C 2017-11-21.31324 1.000E-05 03:11:51.100 1.500E-01 0.500 F -0.264 -0.159 +18° 48' 01.10" 1.000E-01 0.500 F 0.217 0.078 o 691 0.36 Yes No
2014XJ3 O C K 2017-11-21.31324 1.000E-05 03:10:36.270 1.500E-01 0.500 F -0.264 -0.267 +19° 13' 47.80" 1.000E-01 0.500 F 0.217 -0.367 20.2 R 0.70 -0.94 o 691 0.91 Yes Yes
2006VW2 O C 2017-11-21.31934 1.000E-05 03:13:43.600 1.500E-01 0.500 F -0.259 -0.343 +12° 21' 22.70" 1.000E-01 0.500 F 0.340 -0.305 o 691 0.94 Yes No
2014KT76 O C 2017-11-21.32309 1.000E-05 02:36:09.670 1.500E-01 0.500 F -0.140 -1.563 +07° 23' 59.50" 1.000E-01 0.500 F 0.323 0.633 o 691 3.28 No No

[1-200] [201-400] [401-600] [601-800] [801-1000] [1001-1200] [1201-1400] [1401-1600] [1601-1800] [1801-2000] [2001-2200] [2201-2400] [2401-2600] [2601-2800] [2801-3000] [3001-3200] [3201-3400] [3401-3600] [3601-3800] [3801-4000] [4001-4200] [4201-4400] [4401-4600] [4601-4800] [4801-5000] [5001-5200] [5201-5400] [5401-5600] [5601-5800] [5801-6000] [6001-6200] [6201-6400] [6401-6600] [6601-6800] [6801-7000] [7001-7200] [7201-7400] [7401-7600] [7601-7800] [7801-8000] [8001-8200] [8201-8400] [8401-8600] [8601-8800] [8801-9000] [9001-9200] [9201-9400] [9401-9600] [9601-9800] [9801-10000] [10001-10200] [10201-10400] [10401-10600] [10601-10800] [10801-11000] [11001-11200] [11201-11400] [11401-11600] [11601-11800] [11801-12000] [12001-12200] [12201-12400] [12401-12600] [12601-12800] [12801-13000] [13001-13200] [13201-13400] [13401-13600] [13601-13800] [13801-14000] [14001-14200] [14201-14400] [14401-14600] [14601-14800] [14801-15000] [15001-15200] [15201-15400] [15401-15600] [15601-15800] [15801-16000] [16001-16200] [16201-16400] [16401-16600] [16601-16800] [16801-17000] [17001-17200] [17201-17400] [17401-17600] [17601-17800] [17801-18000] [18001-18200] [18201-18400] [18401-18600] [18601-18800] [18801-19000] [19001-19200] [19201-19400] [19401-19600] [19601-19800] [19801-20000] [20001-20200] [20201-20400] [20401-20600] [20601-20800] [20801-21000] [21001-21200] [21201-21400] [21401-21600] [21601-21800] [21801-22000] [22001-22200] [22201-22400] [22401-22600] [22601-22800] [22801-23000] [23001-23200] [23201-23400] [23401-23600] [23601-23800] [23801-24000] [24001-24200] [24201-24400] [24401-24600] [24601-24800] [24801-25000] [25001-25200] [25201-25400] [25401-25600] [25601-25800] [25801-26000] [26001-26200] [26201-26400] [26401-26600] [26601-26800] [26801-27000] [27001-27200] [27201-27400] [27401-27600] [27601-27800] [27801-28000] [28001-28200] [28201-28400] [28401-28600] [28601-28800] [28801-29000] [29001-29200] [29201-29400] [29401-29600] [29601-29800] [29801-30000] [30001-30200] [30201-30400] [30401-30600] [30601-30800] [30801-31000] [31001-31200] [31201-31400] [31401-31600] [31601-31800] [31801-32000] [32001-32200] [32201-32400] [32401-32600] [32601-32800] [32801-33000] [33001-33200] [33201-33400] [33401-33600] [33601-33800] [33801-34000] [34001-34200] [34201-34400] [34401-34600] [34601-34800] [34801-35000] [35001-35200] [35201-35400] [35401-35600] [35601-35800] [35801-36000] [36001-36200] [36201-36400] [36401-36600] [36601-36800] [36801-37000] [37001-37200] [37201-37400] [37401-37600] [37601-37800] [37801-38000] [38001-38200] [38201-38400] [38401-38600] [38601-38800] [38801-39000] [39001-39200] [39201-39400] [39401-39600] [39601-39800] [39801-40000] [40001-40200] [40201-40400] [40401-40600] [40601-40800] [40801-41000] [41001-41200] [41201-41400] [41401-41600] [41601-41800] [41801-42000] [42001-42200] [42201-42400] [42401-42600] [42601-42800] [42801-43000] [43001-43200] [43201-43400] [43401-43600] [43601-43800] [43801-44000] [44001-44200] [44201-44400] [44401-44600] [44601-44800] [44801-45000] [45001-45200] [45201-45400] [45401-45600] [45601-45800] [45801-46000] [46001-46200] [46201-46400] [46401-46600] [46601-46800] [46801-47000] [47001-47200] [47201-47400] [47401-47600] [47601-47800] [47801-48000] [48001-48200] [48201-48400] [48401-48600] [48601-48800] [48801-49000] [49001-49200] [49201-49400] [49401-49600] [49601-49800] [49801-50000] [50001-50200] [50201-50388]